Terminal Aerodrome Forecast
Issued by NWS Omaha/Valley, NE

Home | Current Version | Previous Version | Text Only | Print | Product List | Glossary On
Versions: 1 2 3 4 5 6 7 8 9 10 11 12 13 14 15 16 17 18 19 20 21 22 23 24 25 26 27 28 29 30 31 32 33 34 35 36 37 38 39 40 41 42 43 44 45 46 47 48 49 50
000
FTUS43 KOAX 010252 AAB
TAFLNK
TAF AMD
KLNK 010252Z 0103/0124 02014G22KT 6SM BR OVC009
      TEMPO 0103/0106 4SM -RA OVC007
     FM010800 35015G23KT 5SM -SHRA OVC007
     FM011000 32017G25KT 6SM -RASN OVC008
     FM011300 32020G28KT P6SM VCSH OVC015
     FM011500 32024G32KT P6SM BKN015=

USA.gov is the U.S. government's official web portal to all federal, state and local government web resources and services.